createdAt,value
2018-12-24T00:02:35.612Z,9.40
2018-12-24T00:05:20.258Z,9.27
2018-12-24T00:08:03.764Z,6.70
2018-12-24T00:10:46.430Z,6.80
2018-12-24T00:13:28.708Z,5.43
2018-12-24T00:16:13.086Z,7.73
2018-12-24T00:18:56.815Z,12.57
2018-12-24T00:24:21.846Z,7.10
2018-12-24T00:29:46.473Z,4.10
2018-12-24T00:35:12.742Z,6.37
2018-12-24T00:41:05.816Z,5.80
2018-12-24T00:46:30.499Z,7.43
2018-12-24T00:51:55.350Z,5.93
2018-12-24T00:57:23.130Z,10.37
2018-12-24T01:00:07.879Z,13.10
2018-12-24T01:02:52.682Z,9.47
2018-12-24T01:05:45.198Z,7.57
2018-12-24T01:08:24.407Z,8.03
2018-12-24T01:11:11.126Z,5.90
2018-12-24T01:13:53.581Z,6.63
2018-12-24T01:16:40.384Z,11.07
2018-12-24T01:19:26.071Z,8.97
2018-12-24T01:22:09.611Z,6.03
2018-12-24T01:28:32.409Z,5.57
2018-12-24T01:31:16.227Z,6.33
2018-12-24T01:34:00.399Z,9.43
2018-12-24T01:36:42.161Z,7.33
2018-12-24T01:42:33.208Z,9.23
2018-12-24T01:48:23.820Z,8.67
2018-12-24T01:50:52.382Z,6.63
2018-12-24T01:53:34.220Z,6.83
2018-12-24T01:56:17.658Z,8.10
2018-12-24T01:59:00.182Z,17.20
2018-12-24T02:01:43.418Z,9.30
2018-12-24T02:04:26.810Z,8.43
2018-12-24T02:07:10.027Z,7.77
2018-12-24T02:09:45.314Z,8.17
2018-12-24T02:15:32.924Z,10.70
2018-12-24T02:20:57.429Z,6.07
2018-12-24T02:23:39.965Z,18.97
2018-12-24T02:26:22.631Z,10.87
2018-12-24T02:31:48.460Z,13.17
2018-12-24T02:37:14.156Z,10.40
2018-12-24T02:42:38.164Z,8.63
2018-12-24T02:45:20.594Z,10.60
2018-12-24T02:48:03.186Z,7.57
2018-12-24T02:50:50.635Z,9.80
2018-12-24T02:53:33.438Z,8.63
2018-12-24T02:56:07.818Z,6.87
2018-12-24T02:59:16.670Z,7.07
2018-12-24T03:01:41.774Z,7.97
2018-12-24T03:04:16.401Z,6.33
2018-12-24T03:07:08.376Z,6.50
2018-12-24T03:10:01.019Z,9.57
2018-12-24T03:13:02.262Z,8.67
2018-12-24T03:15:38.201Z,5.03
2018-12-24T03:18:21.196Z,6.60
2018-12-24T03:21:09.734Z,5.87
2018-12-24T03:24:05.648Z,13.07
2018-12-24T03:29:48.985Z,8.20
2018-12-24T03:32:30.633Z,6.83
2018-12-24T03:37:56.355Z,7.70
2018-12-24T03:40:38.998Z,8.53
2018-12-24T03:43:22.163Z,6.47
2018-12-24T03:46:05.174Z,9.43
2018-12-24T03:48:47.765Z,13.07
2018-12-24T03:51:30.936Z,17.10
2018-12-24T03:54:14.235Z,10.17
2018-12-24T03:59:39.038Z,11.03
2018-12-24T04:02:21.811Z,9.80
2018-12-24T04:05:05.762Z,10.63
2018-12-24T04:07:48.505Z,9.03
2018-12-24T04:10:31.393Z,17.93
2018-12-24T04:16:24.915Z,14.13
2018-12-24T04:21:49.491Z,13.40
2018-12-24T04:24:32.621Z,14.37
2018-12-24T04:27:15.906Z,14.33
2018-12-24T04:32:42.375Z,16.17
2018-12-24T04:35:25.563Z,21.07
2018-12-24T04:38:08.165Z,23.30
2018-12-24T04:40:51.325Z,15.60
2018-12-24T04:43:34.542Z,19.63
2018-12-24T04:46:17.211Z,11.63
2018-12-24T04:49:00.429Z,12.37
2018-12-24T04:54:25.584Z,13.87
2018-12-24T04:57:08.483Z,10.97
2018-12-24T04:59:51.609Z,11.87
2018-12-24T05:02:34.006Z,16.07
2018-12-24T05:05:16.604Z,14.53
2018-12-24T05:10:42.699Z,13.27
2018-12-24T05:13:25.613Z,11.67
2018-12-24T05:16:08.679Z,7.87
2018-12-24T05:18:51.350Z,7.83
2018-12-24T05:21:33.887Z,8.30
2018-12-24T05:26:59.162Z,10.47
2018-12-24T05:32:23.855Z,10.57
2018-12-24T05:35:06.449Z,9.77
2018-12-24T05:37:50.180Z,6.77
2018-12-24T05:40:33.050Z,7.00
2018-12-24T05:43:15.833Z,8.67
2018-12-24T05:45:58.811Z,9.90
2018-12-24T05:48:41.800Z,10.07
2018-12-24T05:51:25.376Z,10.80
2018-12-24T05:54:08.130Z,12.00
2018-12-24T05:56:52.148Z,14.00
2018-12-24T05:59:26.162Z,15.00
2018-12-24T06:02:17.133Z,19.93
2018-12-24T06:05:00.021Z,15.53
2018-12-24T06:07:42.940Z,13.17
2018-12-24T06:10:25.189Z,11.20
2018-12-24T06:13:16.208Z,8.13
2018-12-24T06:15:58.778Z,10.40
2018-12-24T06:18:41.782Z,13.87
2018-12-24T06:21:24.650Z,11.90
2018-12-24T06:24:07.533Z,14.63
2018-12-24T06:26:50.700Z,12.83
2018-12-24T06:29:33.730Z,10.23
2018-12-24T06:32:16.325Z,10.33
2018-12-24T06:34:59.043Z,10.70
2018-12-24T06:37:42.044Z,7.30
2018-12-24T06:40:25.886Z,8.17
2018-12-24T06:43:08.623Z,6.37
2018-12-24T06:45:51.201Z,4.97
2018-12-24T06:48:33.587Z,6.97
2018-12-24T06:51:16.252Z,5.10
2018-12-24T06:53:59.329Z,6.07
2018-12-24T06:56:42.839Z,12.40
2018-12-24T06:59:25.683Z,9.03
2018-12-24T07:05:01.102Z,8.13
2018-12-24T07:07:43.690Z,9.30
2018-12-24T07:10:26.408Z,8.70
2018-12-24T07:13:09.089Z,8.47
2018-12-24T07:15:51.706Z,7.03
2018-12-24T07:18:34.108Z,7.83
2018-12-24T07:21:16.683Z,9.37
2018-12-24T07:23:59.486Z,11.30
2018-12-24T07:26:42.751Z,14.17
2018-12-24T07:29:25.686Z,7.63
2018-12-24T07:32:08.395Z,11.40
2018-12-24T07:34:50.813Z,9.07
2018-12-24T07:37:34.642Z,9.67
2018-12-24T07:40:17.361Z,5.33
2018-12-24T07:43:00.067Z,4.90
2018-12-24T07:45:42.859Z,5.77
2018-12-24T07:48:25.452Z,6.20
2018-12-24T07:51:08.263Z,3.53
2018-12-24T07:53:51.318Z,3.30
2018-12-24T07:56:33.939Z,3.33
2018-12-24T07:59:16.707Z,3.20
2018-12-24T08:01:59.536Z,3.23
2018-12-24T08:04:42.269Z,4.03
2018-12-24T08:07:24.493Z,3.33
2018-12-24T08:10:07.547Z,3.20
2018-12-24T08:12:50.564Z,2.70
2018-12-24T08:15:33.266Z,2.07
2018-12-24T08:18:15.631Z,2.63
2018-12-24T08:20:58.109Z,2.50
2018-12-24T08:23:40.889Z,4.33
2018-12-24T08:26:23.127Z,3.90
2018-12-24T08:29:14.207Z,2.53
2018-12-24T08:31:56.919Z,2.30
2018-12-24T08:34:39.595Z,2.20
2018-12-24T08:37:21.979Z,2.63
2018-12-24T08:40:13.043Z,2.53
2018-12-24T08:43:04.475Z,5.30
2018-12-24T08:45:47.307Z,2.70
2018-12-24T08:48:29.898Z,2.30
2018-12-24T08:51:12.532Z,2.30
2018-12-24T08:53:55.034Z,3.50
2018-12-24T08:56:37.758Z,6.77
2018-12-24T08:59:19.913Z,5.03
2018-12-24T09:02:09.730Z,4.43
2018-12-24T09:04:52.319Z,6.07
2018-12-24T09:07:35.182Z,7.13
2018-12-24T09:10:17.924Z,11.37
2018-12-24T09:13:01.269Z,13.93
2018-12-24T09:15:43.659Z,20.13
2018-12-24T09:18:26.422Z,19.33
2018-12-24T09:21:09.066Z,14.57
2018-12-24T09:23:51.891Z,12.63
2018-12-24T09:26:34.428Z,12.43
2018-12-24T09:29:17.251Z,12.57
2018-12-24T09:31:56.396Z,8.20
2018-12-24T09:34:37.329Z,15.00
2018-12-24T09:37:20.095Z,9.10
2018-12-24T09:40:02.590Z,8.33
2018-12-24T09:42:45.416Z,6.60
2018-12-24T09:45:27.977Z,8.50
2018-12-24T09:48:10.881Z,6.57
2018-12-24T09:50:53.638Z,6.47
2018-12-24T09:53:36.364Z,6.10
2018-12-24T09:59:01.026Z,6.80
2018-12-24T10:01:43.870Z,5.13
2018-12-24T10:04:26.948Z,8.50
2018-12-24T10:07:27.973Z,16.27
2018-12-24T10:10:07.114Z,17.33
2018-12-24T10:15:32.134Z,12.13
2018-12-24T10:18:14.700Z,8.53
2018-12-24T10:20:57.165Z,6.00
2018-12-24T10:23:40.058Z,8.03
2018-12-24T10:26:22.475Z,7.67
2018-12-24T10:29:05.618Z,13.47
2018-12-24T10:31:48.354Z,6.10
2018-12-24T10:34:31.015Z,7.07
2018-12-24T10:37:13.489Z,7.37
2018-12-24T10:39:56.144Z,10.83
2018-12-24T10:42:38.859Z,6.60
2018-12-24T10:45:21.523Z,9.00
2018-12-24T10:48:04.402Z,13.70
2018-12-24T10:53:26.495Z,11.17
2018-12-24T10:56:09.743Z,11.87
2018-12-24T10:58:53.081Z,12.27
2018-12-24T11:01:35.615Z,15.57
2018-12-24T11:04:18.385Z,11.90
2018-12-24T11:07:01.400Z,8.00
2018-12-24T11:09:44.117Z,7.30
2018-12-24T11:12:26.835Z,8.03
2018-12-24T11:15:25.034Z,5.70
2018-12-24T11:20:44.389Z,6.13
2018-12-24T11:23:27.410Z,6.57
2018-12-24T11:26:10.835Z,5.33
2018-12-24T11:28:53.612Z,4.50
2018-12-24T11:31:36.478Z,4.03
2018-12-24T11:34:19.092Z,5.13
2018-12-24T11:37:01.554Z,6.47
2018-12-24T11:39:44.164Z,4.57
2018-12-24T11:42:26.771Z,4.00
2018-12-24T11:45:09.593Z,4.67
2018-12-24T11:47:52.941Z,4.37
2018-12-24T11:50:36.017Z,4.00
2018-12-24T11:53:19.074Z,8.17
2018-12-24T11:56:02.745Z,6.53
2018-12-24T11:58:45.507Z,6.10
2018-12-24T12:01:28.243Z,8.23
2018-12-24T12:04:11.365Z,7.80
2018-12-24T12:06:53.911Z,7.17
2018-12-24T12:09:36.797Z,6.23
2018-12-24T12:12:19.707Z,5.97
2018-12-24T12:15:02.254Z,6.50
2018-12-24T12:17:44.959Z,6.87
2018-12-24T12:20:23.394Z,6.47
2018-12-24T12:23:13.641Z,7.50
2018-12-24T12:26:04.062Z,7.50
2018-12-24T12:28:46.612Z,7.33
2018-12-24T12:31:30.578Z,8.47
2018-12-24T12:34:15.731Z,8.13
2018-12-24T12:36:58.270Z,9.60
2018-12-24T12:39:41.781Z,9.83
2018-12-24T12:45:19.337Z,14.53
2018-12-24T12:48:07.242Z,11.13
2018-12-24T12:50:49.682Z,11.33
2018-12-24T12:53:33.150Z,5.80
2018-12-24T12:56:17.120Z,9.30
2018-12-24T12:59:02.956Z,5.37
2018-12-24T13:01:46.444Z,5.37
2018-12-24T13:04:30.898Z,6.13
2018-12-24T13:07:14.496Z,5.80
2018-12-24T13:09:57.773Z,7.73
2018-12-24T13:12:40.727Z,5.53
2018-12-24T13:15:23.456Z,5.13
2018-12-24T13:18:05.896Z,5.23
2018-12-24T13:23:33.929Z,6.83
2018-12-24T13:26:20.039Z,7.17
2018-12-24T13:29:04.228Z,5.93
2018-12-24T13:37:09.426Z,6.53
2018-12-24T13:39:57.974Z,7.10
2018-12-24T13:43:04.049Z,7.33
2018-12-24T13:46:08.277Z,4.93
2018-12-24T13:49:04.308Z,7.47
2018-12-24T13:51:52.108Z,8.53
2018-12-24T14:00:49.335Z,13.33
2018-12-24T14:03:33.295Z,11.53
2018-12-24T14:12:11.799Z,14.03
2018-12-24T14:14:57.444Z,9.63
2018-12-24T14:17:40.868Z,8.87
2018-12-24T14:20:24.270Z,6.83
2018-12-24T14:23:07.645Z,7.30
2018-12-24T14:25:50.755Z,7.13
2018-12-24T14:28:33.098Z,11.67
2018-12-24T14:31:16.353Z,10.13
2018-12-24T14:33:58.988Z,14.90
2018-12-24T14:36:41.510Z,10.23
2018-12-24T14:39:33.641Z,9.10
2018-12-24T14:42:23.689Z,8.67
2018-12-24T14:45:07.085Z,5.57
2018-12-24T14:47:48.902Z,6.97
2018-12-24T14:53:13.077Z,10.97
2018-12-24T14:55:55.529Z,4.40
2018-12-24T14:58:37.444Z,4.70
2018-12-24T15:04:02.383Z,5.87
2018-12-24T15:06:46.610Z,5.13
2018-12-24T15:09:30.707Z,4.03
2018-12-24T15:12:13.964Z,5.43
2018-12-24T15:14:56.845Z,3.57
2018-12-24T15:20:26.230Z,3.23
2018-12-24T15:23:10.503Z,4.10
2018-12-24T15:25:53.524Z,11.07
2018-12-24T15:28:37.833Z,4.53
2018-12-24T15:31:20.774Z,3.80
2018-12-24T15:34:05.193Z,6.63
2018-12-24T15:36:47.760Z,6.10
2018-12-24T15:39:31.244Z,5.63
2018-12-24T15:42:04.514Z,5.87
2018-12-24T15:44:55.591Z,6.77
2018-12-24T15:47:38.273Z,2.67
2018-12-24T15:53:03.548Z,4.50
2018-12-24T15:58:29.989Z,11.03
2018-12-24T16:01:14.532Z,5.57
2018-12-24T16:03:56.615Z,4.00
2018-12-24T16:06:39.241Z,4.70
2018-12-24T16:09:23.120Z,7.30
2018-12-24T16:12:06.123Z,3.30
2018-12-24T16:14:49.357Z,3.90
2018-12-24T16:20:18.000Z,4.30
2018-12-24T16:23:01.626Z,5.67
2018-12-24T16:25:44.563Z,5.87
2018-12-24T16:28:27.038Z,5.07
2018-12-24T16:31:09.784Z,3.23
2018-12-24T16:33:52.573Z,2.00
2018-12-24T16:36:35.323Z,3.20
2018-12-24T16:41:52.810Z,2.73
2018-12-24T16:44:44.189Z,5.50
2018-12-24T16:47:26.038Z,3.73
2018-12-24T16:49:59.142Z,3.17
2018-12-24T16:55:23.095Z,2.20
2018-12-24T16:57:56.041Z,5.30
2018-12-24T17:00:30.838Z,4.43
2018-12-24T17:03:03.721Z,3.27
2018-12-24T17:05:36.423Z,5.73
2018-12-24T17:08:09.262Z,6.93
2018-12-24T17:10:41.980Z,9.80
2018-12-24T17:13:14.829Z,7.70
2018-12-24T17:15:47.561Z,13.47
2018-12-24T17:18:24.260Z,17.87
2018-12-24T17:21:17.413Z,16.20
2018-12-24T17:23:50.376Z,13.83
2018-12-24T17:26:23.191Z,6.67
2018-12-24T17:29:14.330Z,2.80
2018-12-24T17:34:59.757Z,2.60
2018-12-24T17:37:50.895Z,5.73
2018-12-24T17:40:35.842Z,2.83
2018-12-24T17:46:00.172Z,3.20
2018-12-24T17:48:42.618Z,4.93
2018-12-24T17:51:25.552Z,2.93
2018-12-24T17:54:08.154Z,1.47
2018-12-24T17:56:51.139Z,4.90
2018-12-24T17:59:35.536Z,4.80
2018-12-24T18:02:20.226Z,4.37
2018-12-24T18:05:02.880Z,2.73
2018-12-24T18:07:46.031Z,4.00
2018-12-24T18:10:29.790Z,5.63
2018-12-24T18:16:02.022Z,3.17
2018-12-24T18:18:53.175Z,4.73
2018-12-24T18:21:35.579Z,2.73
2018-12-24T18:24:19.300Z,5.03
2018-12-24T18:27:02.571Z,18.23
2018-12-24T18:29:45.381Z,5.83
2018-12-24T18:32:29.370Z,7.83
2018-12-24T18:35:14.242Z,2.40
2018-12-24T18:37:56.694Z,1.83
2018-12-24T18:43:23.650Z,2.10
2018-12-24T18:46:06.633Z,2.90
2018-12-24T18:48:50.064Z,6.57
2018-12-24T18:51:36.903Z,13.70
2018-12-24T18:54:27.853Z,6.63
2018-12-24T18:57:12.602Z,3.27
2018-12-24T18:59:51.746Z,5.27
2018-12-24T19:02:36.004Z,2.33
2018-12-24T19:05:24.833Z,2.87
2018-12-24T19:08:08.073Z,11.90
2018-12-24T19:10:53.399Z,4.30
2018-12-24T19:13:36.534Z,7.53
2018-12-24T19:16:18.543Z,3.40
2018-12-24T19:19:04.174Z,4.27
2018-12-24T19:21:47.287Z,2.42
2018-12-24T19:24:31.160Z,3.00
2018-12-24T19:27:14.119Z,8.07
2018-12-24T19:29:58.004Z,4.47
2018-12-24T19:32:41.531Z,4.73
2018-12-24T19:35:24.286Z,5.17
2018-12-24T19:38:08.940Z,6.73
2018-12-24T19:40:52.106Z,6.50
2018-12-24T19:43:35.998Z,6.00
2018-12-24T19:46:23.849Z,8.33
2018-12-24T19:49:05.570Z,2.58
2018-12-24T19:54:28.034Z,6.27
2018-12-24T19:57:11.203Z,6.97
2018-12-24T20:02:46.683Z,2.23
2018-12-24T20:05:32.691Z,4.23
2018-12-24T20:08:15.673Z,2.37
2018-12-24T20:10:58.832Z,2.20
2018-12-24T20:13:44.255Z,3.23
2018-12-24T20:16:26.996Z,3.83
2018-12-24T20:19:10.810Z,2.90
2018-12-24T20:21:54.591Z,3.93
2018-12-24T20:24:38.216Z,5.33
2018-12-24T20:27:21.130Z,7.60
2018-12-24T20:33:24.986Z,2.10
2018-12-24T20:36:08.740Z,10.30
2018-12-24T20:38:52.745Z,5.07
2018-12-24T20:41:36.064Z,20.97
2018-12-24T20:44:20.419Z,16.73
2018-12-24T20:47:05.124Z,11.40
2018-12-24T20:49:50.338Z,13.72
2018-12-24T20:52:34.481Z,4.65
2018-12-24T20:55:17.162Z,6.22
2018-12-24T20:57:59.657Z,3.10
2018-12-24T21:00:42.465Z,4.93
2018-12-24T21:03:25.172Z,8.67
2018-12-24T21:06:06.691Z,3.83
2018-12-24T21:08:53.271Z,4.83
2018-12-24T21:11:36.168Z,4.90
2018-12-24T21:19:51.752Z,5.07
2018-12-24T21:22:43.493Z,3.17
2018-12-24T21:25:26.698Z,5.43
2018-12-24T21:28:09.463Z,7.33
2018-12-24T21:33:55.051Z,3.23
2018-12-24T21:36:40.247Z,2.80
2018-12-24T21:39:23.034Z,2.07
2018-12-24T21:45:14.075Z,1.67
2018-12-24T21:47:58.977Z,2.53
2018-12-24T21:50:42.301Z,2.90
2018-12-24T21:53:25.572Z,3.93
2018-12-24T21:56:08.052Z,3.50
2018-12-24T21:58:51.350Z,2.83
2018-12-24T22:01:33.706Z,4.83
2018-12-24T22:04:17.443Z,1.87
2018-12-24T22:06:59.953Z,4.90
2018-12-24T22:09:42.465Z,7.10
2018-12-24T22:12:25.005Z,6.70
2018-12-24T22:15:12.442Z,4.17
2018-12-24T22:17:55.079Z,7.23
2018-12-24T22:20:38.310Z,3.33
2018-12-24T22:23:20.799Z,4.37
2018-12-24T22:26:12.049Z,4.17
2018-12-24T22:28:55.781Z,9.67
2018-12-24T22:31:38.487Z,4.57
2018-12-24T22:34:20.950Z,3.53
2018-12-24T22:37:04.002Z,3.67
2018-12-24T22:39:47.063Z,5.17
2018-12-24T22:42:22.949Z,4.77
2018-12-24T22:45:00.899Z,3.77
2018-12-24T22:47:33.902Z,5.67
2018-12-24T22:50:09.623Z,4.33
2018-12-24T22:52:42.820Z,4.73
2018-12-24T22:55:34.637Z,6.40
2018-12-24T22:58:26.173Z,5.00
2018-12-24T23:01:00.053Z,3.57
2018-12-24T23:03:32.941Z,7.57
2018-12-24T23:06:25.253Z,3.80
2018-12-24T23:12:10.089Z,5.20
2018-12-24T23:15:16.482Z,6.10
2018-12-24T23:18:07.747Z,3.50
2018-12-24T23:21:16.465Z,4.53
2018-12-24T23:23:44.666Z,5.70
2018-12-24T23:29:41.635Z,3.83
2018-12-24T23:35:07.327Z,15.93
2018-12-24T23:37:53.214Z,4.23
2018-12-24T23:40:35.941Z,8.27
2018-12-24T23:43:20.443Z,9.33
2018-12-24T23:46:31.914Z,7.93
2018-12-24T23:48:57.760Z,11.97
2018-12-24T23:51:40.482Z,13.73
2018-12-24T23:57:10.721Z,6.63
2018-12-24T23:59:54.282Z,6.07
